Aérodrome :
LOGIN :

S'inscrire | Disclaimer

   EN    FR    IT 

 










Légende :    VFR   VFR Marginal   IFR   IFR Intensif   IFR Très Intensif
Visi : 
Plafond : 
>= 8 km
>= 3000ft
5 à 8 km
1000 à 3000 ft
1500m à 5 km
500 à 1000 ft
800 à 1500m
200 à 500 ft
< 800m
< 200 ft
Symboles :   Orages  Brouillard  Fortes neiges  Fortes précipitations  Vent > 20 kt
SIGMETs :   Divers  Orages  Givrage  Turbulence  Onde Orograph.  Cendres Volcan.






- Altitude de l'aérodrome : -13 ft
- Code IATA : LEY


EHLE - Lelystad

DERNIER METAR :
  • 211355Z AUTO 09008KT 060V130 7000 // FEW013 05/03 Q1007 RE// NOSIG

METARs EXPIRÉS :
  • 211325Z AUTO 09008KT 070V130 7000 // NSC 05/03 Q1007 RE// NOSIG
  • 211255Z AUTO 09008KT 040V130 6000 // FEW010 04/03 Q1007 RE// NOSIG
  • 211225Z AUTO 08009KT 050V120 6000 // BKN009 04/03 Q1008 RE// NOSIG
  • 211155Z AUTO 08010KT 5000 // FEW009 SCT011 04/02 Q1008 RE// NOSIG
  • 211125Z AUTO 09010KT 5000 // BKN009 04/02 Q1009 RE// NOSIG
  • 211055Z AUTO 09009KT 050V110 5000 // SCT008 BKN009 03/02 Q1009 RE// BECMG BKN010

TAF TAF EHLE
Valide du 21 à 12h jusqu'au 22 à 18h UTC


211104Z 2112/2218 10010KT 5000 BR SCT014
BECMG 2112/2115 8000 NSW
BECMG 2116/2119 7000
PROB30 2118/2209 4000 BR
BECMG 2201/2204 16010KT
BECMG 2209/2212 CAVOK



MET'MAP, la Météo Aéronautique d'un coup d'oeil ! - Copyright ORBIFLY Décembre 2007 - Disclaimer

ORBIFLY MET'MAP TEAM :

Programmation & Développement : Alexandra Zaïnal
Conception & Développement : Baudouin d'Aumeries
Co-Programmation & Développement : Marc-Olivier Méhu
Soutien technique & logistique : Manuel Goepfert

Contact : metmap@orbifly.com




SOURCES & CREDITS :

   NOAA